Ny-glimt — LM6637 — position and weather

sailwx.info

Track history (hours):
 
Tides and Currents Weather Stations Pressure Air Temp Water Temp Dewpoint Dewpoint Depression Visibility Wind Speed Wind Dir Waves Ship Positions

Ny-glimt

Last reported at 2017-Nov-16 09:06 UTC. Time now 2017-Dec-17 08:19 UTC.
Position N 70°04' E 021°11'.
Warning: this ship's position is 30 days out of date.

Length 13 m; draft 2 m.

Type: Fishing. MMSI: 257933500.

Date/timePositionNaut miles runAvg speedWind from/ knotsBaromVisibWave heightAir tempDewpointWater temp
2017-Nov-16 09:06N 70°04' E 021°11'0 1.9
2017-Nov-16 09:00N 70°04' E 021°10'0 0.5
2017-Nov-16 08:29N 70°03' E 021°11'1 1.8
2017-Nov-16 07:59N 70°02' E 021°11'0 0.1
2017-Nov-16 07:30N 70°02' E 021°11'2 3.4
2017-Nov-16 07:00N 70°02' E 021°07'0 0.2
2017-Nov-16 06:30N 70°02' E 021°07'0 0.2
2017-Nov-16 06:00N 70°02' E 021°07'1 1.2
2017-Nov-16 05:30N 70°01' E 021°05'0 0.6
2017-Nov-16 05:00N 70°02' E 021°05'2 3.7
2017-Nov-16 04:30N 70°02' E 020°60'0 0.9
2017-Nov-16 04:00N 70°02' E 020°59'0 0.0
2017-Nov-16 03:30N 70°02' E 020°59'0 0.0
2017-Nov-16 03:00N 70°02' E 020°59'0 0.0
2017-Nov-16 02:30N 70°02' E 020°59'0 0.0
2017-Nov-16 02:00N 70°02' E 020°59'0 0.0
2017-Nov-16 01:30N 70°02' E 020°59'0 0.0
2017-Nov-16 01:00N 70°02' E 020°59'0 0.0
2017-Nov-16 00:30N 70°02' E 020°59'0 0.0
2017-Nov-16 00:00N 70°02' E 020°59'0 0.0
2017-Nov-15 23:30N 70°02' E 020°59'0 0.0
2017-Nov-15 22:59N 70°02' E 020°59'0 0.0
2017-Nov-15 22:30N 70°02' E 020°59'0 0.0
2017-Nov-15 22:00N 70°02' E 020°59'0 0.0
2017-Nov-15 21:30N 70°02' E 020°59'0 0.0
2017-Nov-15 20:59N 70°02' E 020°59'0 0.0
2017-Nov-15 20:30N 70°02' E 020°59'0 0.0
2017-Nov-15 20:00N 70°02' E 020°59'0 0.0
2017-Nov-15 19:30N 70°02' E 020°59'0 0.0
2017-Nov-15 19:00N 70°02' E 020°59'1 2.3
2017-Nov-15 18:30N 70°02' E 021°02'3 6.9
2017-Nov-15 17:59N 70°04' E 021°11'3 6.8
2017-Nov-15 17:30N 70°07' E 021°12'0 1.0
2017-Nov-15 17:00N 70°07' E 021°11'3 5.3
2017-Nov-15 16:30N 70°05' E 021°07'4 7.1
2017-Nov-15 15:59N 70°02' E 020°60'0 0.9
2017-Nov-15 15:30N 70°02' E 020°59'0 0.0
2017-Nov-15 15:00N 70°02' E 020°59'0 0.0
2017-Nov-15 14:30N 70°02' E 020°59'0 0.0
2017-Nov-15 13:57N 70°02' E 020°59'0 0.4
2017-Nov-15 13:30N 70°02' E 020°59'2 3.5
2017-Nov-15 13:00N 70°02' E 021°04'2 4.7
2017-Nov-15 12:30N 70°03' E 021°10'1 2.1
2017-Nov-15 12:00N 70°04' E 021°12'2 3.3
2017-Nov-15 11:30N 70°03' E 021°11'0 0.7
2017-Nov-15 11:00N 70°02' E 021°11'1 2.9
2017-Nov-15 10:30N 70°02' E 021°07'0 0.4
2017-Nov-15 10:00N 70°02' E 021°06'1 1.4
2017-Nov-15 09:30N 70°01' E 021°05'2 3.0
2017-Nov-15 09:00N 70°01' E 021°00'1 1.8
2017-Nov-15 08:30N 70°02' E 020°59'0 0.1
2017-Nov-15 08:00N 70°02' E 020°59'0 0.0
2017-Nov-15 07:30N 70°02' E 020°59'0 0.0
2017-Nov-15 07:00N 70°02' E 020°59'0 0.0
2017-Nov-15 06:30N 70°02' E 020°59'0 0.0
2017-Nov-15 06:00N 70°02' E 020°59'0 0.0
2017-Nov-15 05:30N 70°02' E 020°59'0 0.0
2017-Nov-15 05:00N 70°02' E 020°59'0 0.0
2017-Nov-15 04:30N 70°02' E 020°59'0 0.0
2017-Nov-15 04:00N 70°02' E 020°59'0 0.5
2017-Nov-15 03:30N 70°02' E 020°59'2 4.0
2017-Nov-15 03:00N 70°04' E 020°57'4 7.8
2017-Nov-15 02:30N 70°02' E 020°46'4 7.2
2017-Nov-15 02:00N 70°01' E 020°37'3 6.8
2017-Nov-15 01:30N 70°00' E 020°27'3 6.9
2017-Nov-15 01:00N 69°59' E 020°18'4 7.0
2017-Nov-15 00:30N 69°57' E 020°09'4 6.9
2017-Nov-14 23:59N 69°55' E 020°01'3 6.9
2017-Nov-14 23:30N 69°53' E 019°54'3 6.9
2017-Nov-14 23:00N 69°51' E 019°46'4 8.0
2017-Nov-14 22:30N 69°49' E 019°35'4 8.2
2017-Nov-14 22:00N 69°48' E 019°24'4 8.2
2017-Nov-14 21:30N 69°46' E 019°13'4 8.0
2017-Nov-14 21:00N 69°44' E 019°05'4 8.0
2017-Nov-14 20:30N 69°40' E 019°00'4 8.0
2017-Nov-14 20:00N 69°37' E 018°54'4 8.1
2017-Nov-14 19:30N 69°34' E 018°46'5 9.4
2017-Nov-14 19:00N 69°32' E 018°34'4 8.3
2017-Nov-14 18:30N 69°31' E 018°22'4 8.0
2017-Nov-14 18:00N 69°29' E 018°12'4 7.1
2017-Nov-14 17:30N 69°26' E 018°08'4 7.6
2017-Nov-14 17:00N 69°22' E 018°06'4 7.4
2017-Nov-14 16:30N 69°19' E 017°60'4 7.5
2017-Nov-14 16:00N 69°15' E 017°59'4 7.1
2017-Nov-14 15:30N 69°12' E 018°01'3 6.9
2017-Nov-14 15:00N 69°10' E 017°54'4 7.8
2017-Nov-14 14:29N 69°08' E 017°43'4 7.7
2017-Nov-14 13:59N 69°07' E 017°34'4 7.7
2017-Nov-14 13:30N 69°05' E 017°24'4 7.9
2017-Nov-14 12:59N 69°01' E 017°18'4 7.8
2017-Nov-14 12:30N 68°58' E 017°12'4 8.0
2017-Nov-14 12:00N 68°55' E 017°05'4 7.9
2017-Nov-14 11:30N 68°52' E 016°58'4 7.8
2017-Nov-14 11:00N 68°49' E 016°53'4 8.0
2017-Nov-14 10:30N 68°45' E 016°47'4 8.2
2017-Nov-14 10:00N 68°42' E 016°42'4 8.6
2017-Nov-14 09:29N 68°38' E 016°35'4 8.8
2017-Nov-14 09:00N 68°34' E 016°31'4 8.3
2017-Nov-14 08:30N 68°34' E 016°20'4 8.3
2017-Nov-14 08:00N 68°31' E 016°11'4 8.1
2017-Nov-14 07:30N 68°28' E 016°06'4 7.9
2017-Nov-14 07:00N 68°24' E 016°01'4 7.4
2017-Nov-14 06:30N 68°21' E 015°55'4 7.2
2017-Nov-14 06:00N 68°19' E 015°47'4 7.6
2017-Nov-14 05:30N 68°17' E 015°38'4 7.5
2017-Nov-14 05:00N 68°16' E 015°29'4 7.7
2017-Nov-14 04:30N 68°14' E 015°19'4 7.6
2017-Nov-14 04:00N 68°13' E 015°10'4 7.8
2017-Nov-14 03:30N 68°11' E 015°01'4 7.8
2017-Nov-14 03:00N 68°09' E 014°51'4 7.6
2017-Nov-14 02:29N 68°08' E 014°42'4 7.3
2017-Nov-14 01:59N 68°07' E 014°32'4 7.3
2017-Nov-14 01:30N 68°06' E 014°22'4 7.6
2017-Nov-14 01:00N 68°06' E 014°13'4 7.7
2017-Nov-14 00:29N 68°05' E 014°02'4 7.4
2017-Nov-14 00:00N 68°05' E 013°52'4 7.3
2017-Nov-13 23:29N 68°04' E 013°43'4 7.4
2017-Nov-13 23:00N 68°04' E 013°33'3 5.8
2017-Nov-13 22:30N 68°05' E 013°27'3 6.7
2017-Nov-13 22:00N 68°09' E 013°28'7 0.3
2017-Nov-13 02:00N 68°14' E 013°38'0 0.0
2017-Nov-13 01:30N 68°14' E 013°38'0 0.0
2017-Nov-13 01:00N 68°14' E 013°38'0 0.0
2017-Nov-13 00:29N 68°14' E 013°38'0 0.0
2017-Nov-13 00:00N 68°14' E 013°38'0 0.0
2017-Nov-12 23:30N 68°14' E 013°38'0 0.0
2017-Nov-12 23:00N 68°14' E 013°38'0 0.0
2017-Nov-12 22:30N 68°14' E 013°38'0 0.0
2017-Nov-12 22:00N 68°14' E 013°38'0 0.0
2017-Nov-12 21:30N 68°14' E 013°38'0 0.0
2017-Nov-12 20:59N 68°14' E 013°38'0 0.0
2017-Nov-12 20:30N 68°14' E 013°38'0 0.0
2017-Nov-12 20:00N 68°14' E 013°38'0 0.0
2017-Nov-12 19:30N 68°14' E 013°38'0 0.0
2017-Nov-12 19:00N 68°14' E 013°38'0 0.0
2017-Nov-12 18:30N 68°14' E 013°38'0 0.0
2017-Nov-12 18:00N 68°14' E 013°38'0 0.0
2017-Nov-12 17:30N 68°14' E 013°38'0 0.0
2017-Nov-12 17:00N 68°14' E 013°38'0 0.0
2017-Nov-12 16:30N 68°14' E 013°38'0 0.0
2017-Nov-12 16:00N 68°14' E 013°38'0 0.0
2017-Nov-12 15:30N 68°14' E 013°38'0 0.0
2017-Nov-12 15:00N 68°14' E 013°38'0 0.0
2017-Nov-12 14:30N 68°14' E 013°38'0 0.0
2017-Nov-12 14:00N 68°14' E 013°38'0 0.0
2017-Nov-12 13:30N 68°14' E 013°38'0 0.0
2017-Nov-12 13:00N 68°14' E 013°38'0 0.0
2017-Nov-12 12:30N 68°14' E 013°38'0 0.0
2017-Nov-12 12:00N 68°14' E 013°38'0 0.0
2017-Nov-12 11:30N 68°14' E 013°38'0 0.0
2017-Nov-12 10:59N 68°14' E 013°38'0 0.0
2017-Nov-12 10:30N 68°14' E 013°38'0 0.0
2017-Nov-12 09:59N 68°14' E 013°38'0 0.0
2017-Nov-12 09:30N 68°14' E 013°38'0 0.0
2017-Nov-12 09:00N 68°14' E 013°38'0 0.0
2017-Nov-12 08:29N 68°14' E 013°38'0 0.0
2017-Nov-12 07:59N 68°14' E 013°38'0 0.0
2017-Nov-12 07:30N 68°14' E 013°38'0 0.0
2017-Nov-12 07:00N 68°14' E 013°38'0 0.0
2017-Nov-12 06:30N 68°14' E 013°38'0 0.0
2017-Nov-12 06:00N 68°14' E 013°38'0 0.0
2017-Nov-12 05:30N 68°14' E 013°38'0 0.0
2017-Nov-12 05:00N 68°14' E 013°38'0 0.0
2017-Nov-12 04:30N 68°14' E 013°38'0 0.0
2017-Nov-12 04:00N 68°14' E 013°38'0 0.0
2017-Nov-12 03:30N 68°14' E 013°38'0 0.0
2017-Nov-12 03:00N 68°14' E 013°38'0 0.0
2017-Nov-12 02:29N 68°14' E 013°38'0 0.0
2017-Nov-12 02:00N 68°14' E 013°38'0 0.0
2017-Nov-12 01:30N 68°14' E 013°38'0 0.0
2017-Nov-12 01:00N 68°14' E 013°38'0 0.0
2017-Nov-12 00:30N 68°14' E 013°38'0 0.0
2017-Nov-12 00:00N 68°14' E 013°38'0 0.0
2017-Nov-11 23:30N 68°14' E 013°38'0 0.0
2017-Nov-11 22:59N 68°14' E 013°38'0 0.0
2017-Nov-11 22:30N 68°14' E 013°38'0 0.0
2017-Nov-11 22:00N 68°14' E 013°38'0 0.0
2017-Nov-11 21:30N 68°14' E 013°38'0 0.0
2017-Nov-11 21:00N 68°14' E 013°38'0 0.0
2017-Nov-11 20:30N 68°14' E 013°38'0 0.0
2017-Nov-11 20:00N 68°14' E 013°38'0 0.0
2017-Nov-11 19:30N 68°14' E 013°38'0 0.0
2017-Nov-11 19:00N 68°14' E 013°38'0 0.0
2017-Nov-11 18:30N 68°14' E 013°38'0 0.0
2017-Nov-11 18:00N 68°14' E 013°38'0 0.0
2017-Nov-11 17:29N 68°14' E 013°38'0 0.0
2017-Nov-11 16:59N 68°14' E 013°38'0 0.0
2017-Nov-11 16:30N 68°14' E 013°38'0 0.0
2017-Nov-11 16:00N 68°14' E 013°38'0 0.0
2017-Nov-11 15:30N 68°14' E 013°38'0 0.0
2017-Nov-11 15:00N 68°14' E 013°38'0 0.0
2017-Nov-11 14:30N 68°14' E 013°38'0 0.0
2017-Nov-11 14:00N 68°14' E 013°38'0 0.0
2017-Nov-11 13:30N 68°14' E 013°38'0 0.0
2017-Nov-11 13:00N 68°14' E 013°38'0 0.0
2017-Nov-11 12:30N 68°14' E 013°38'0 0.0
2017-Nov-11 12:00N 68°14' E 013°38'0 0.0
2017-Nov-11 11:30N 68°14' E 013°38'0 0.0
2017-Nov-11 11:00N 68°14' E 013°38'0 0.0
2017-Nov-11 10:30N 68°14' E 013°38'0 0.0
2017-Nov-11 09:59N 68°14' E 013°38'0 0.0
2017-Nov-11 09:30N 68°14' E 013°38'0 0.0
2017-Nov-11 09:00N 68°14' E 013°38'0 0.0
2017-Nov-11 08:30N 68°14' E 013°38'0 0.0
2017-Nov-11 08:00N 68°14' E 013°38'0 0.0
2017-Nov-11 07:30N 68°14' E 013°38'0 0.0
2017-Nov-11 07:00N 68°14' E 013°38'0 0.0
2017-Nov-11 06:30N 68°14' E 013°38'0 0.0
2017-Nov-11 06:00N 68°14' E 013°38'0 0.0
2017-Nov-11 05:30N 68°14' E 013°38'0 0.0
2017-Nov-11 05:00N 68°14' E 013°38'0 0.0
2017-Nov-11 04:30N 68°14' E 013°38'0 0.0
2017-Nov-11 04:00N 68°14' E 013°38'0 0.0
2017-Nov-11 03:30N 68°14' E 013°38'0 0.0
2017-Nov-11 03:00N 68°14' E 013°38'0 0.0
2017-Nov-11 02:30N 68°14' E 013°38'0 0.0
2017-Nov-11 02:00N 68°14' E 013°38'0 0.0
2017-Nov-11 01:30N 68°14' E 013°38'0 0.0
2017-Nov-11 01:00N 68°14' E 013°38'0 0.0
2017-Nov-11 00:30N 68°14' E 013°38'0 0.0
2017-Nov-11 00:00N 68°14' E 013°38'0 0.0
2017-Nov-10 23:30N 68°14' E 013°38'0 0.0
2017-Nov-10 23:00N 68°14' E 013°38'0 0.0
2017-Nov-10 22:30N 68°14' E 013°38'0 0.0
2017-Nov-10 22:00N 68°14' E 013°38'0 0.0
2017-Nov-10 21:30N 68°14' E 013°38'0 0.0
2017-Nov-10 21:00N 68°14' E 013°38'0 0.0
2017-Nov-10 20:30N 68°14' E 013°38'0 0.0
2017-Nov-10 20:00N 68°14' E 013°38'0 0.0
2017-Nov-10 19:30N 68°14' E 013°38'0 0.0
2017-Nov-10 19:00N 68°14' E 013°38'0 0.0
2017-Nov-10 18:30N 68°14' E 013°38'0 0.0
2017-Nov-10 18:00N 68°14' E 013°38'0 0.0
2017-Nov-10 17:29N 68°14' E 013°38'0 0.0
2017-Nov-10 17:00N 68°14' E 013°38'0 0.0
2017-Nov-10 16:30N 68°14' E 013°38'0 0.0
2017-Nov-10 16:00N 68°14' E 013°38'0 0.0
2017-Nov-10 15:30N 68°14' E 013°38'0 0.0
2017-Nov-10 15:00N 68°14' E 013°38'0 0.0
2017-Nov-10 14:30N 68°14' E 013°38'0 0.0
2017-Nov-10 14:00N 68°14' E 013°38'0 0.0
2017-Nov-10 13:30N 68°14' E 013°38'0 0.0
2017-Nov-10 12:59N 68°14' E 013°38'0 0.0
2017-Nov-10 12:30N 68°14' E 013°38'0 0.0
2017-Nov-10 12:00N 68°14' E 013°38'0 0.0
2017-Nov-10 11:30N 68°14' E 013°38'0 0.0
2017-Nov-10 11:00N 68°14' E 013°38'0 0.0
2017-Nov-10 10:30N 68°14' E 013°38'0 0.0
2017-Nov-10 10:00N 68°14' E 013°38'0 0.0
2017-Nov-10 09:29N 68°14' E 013°38'0 0.0
2017-Nov-10 09:00N 68°14' E 013°38'0 0.0
2017-Nov-10 08:30N 68°14' E 013°38'0 0.1
2017-Nov-10 08:00N 68°14' E 013°38'0 0.0
2017-Nov-10 07:30N 68°14' E 013°38'0 0.0
2017-Nov-10 07:00N 68°14' E 013°38'0 0.0
2017-Nov-10 06:30N 68°14' E 013°38'0 0.0
2017-Nov-10 06:00N 68°14' E 013°38'0 0.0
2017-Nov-10 05:30N 68°14' E 013°38'0 0.0
2017-Nov-10 05:00N 68°14' E 013°38'0 0.0
2017-Nov-10 04:30N 68°14' E 013°38'0 0.0
2017-Nov-10 04:00N 68°14' E 013°38'0 0.0
2017-Nov-10 03:30N 68°14' E 013°38'0 0.0
2017-Nov-10 03:00N 68°14' E 013°38'0 0.0
2017-Nov-10 02:30N 68°14' E 013°38'0 0.0
2017-Nov-10 02:00N 68°14' E 013°38'0 0.0
2017-Nov-10 01:30N 68°14' E 013°38'0 0.0
2017-Nov-10 01:00N 68°14' E 013°38'0 0.0
2017-Nov-10 00:30N 68°14' E 013°38'0 0.0
2017-Nov-10 00:00N 68°14' E 013°38'0 0.0
2017-Nov-09 23:30N 68°14' E 013°38'0 0.0
2017-Nov-09 23:00N 68°14' E 013°38'0 0.0
2017-Nov-09 22:30N 68°14' E 013°38'0 0.0
2017-Nov-09 22:00N 68°14' E 013°38'0 0.0
2017-Nov-09 21:29N 68°14' E 013°38'0 0.0
2017-Nov-09 21:00N 68°14' E 013°38'0 0.0
2017-Nov-09 20:30N 68°14' E 013°38'0 0.0
2017-Nov-09 20:00N 68°14' E 013°38'0 0.0
2017-Nov-09 19:30N 68°14' E 013°38'0 0.0
2017-Nov-09 19:00N 68°14' E 013°38'0 0.0
2017-Nov-09 18:30N 68°14' E 013°38'0 0.0
2017-Nov-09 18:00N 68°14' E 013°38'0 0.0
2017-Nov-09 17:29N 68°14' E 013°38'0 0.0
2017-Nov-09 17:00N 68°14' E 013°38'0 0.0
2017-Nov-09 16:30N 68°14' E 013°38'0 0.0
2017-Nov-09 16:00N 68°14' E 013°38'0 0.0
2017-Nov-09 15:30N 68°14' E 013°38'0 0.0
2017-Nov-09 15:00N 68°14' E 013°38'0 0.0
2017-Nov-09 14:30N 68°14' E 013°38'0 0.0
2017-Nov-09 14:00N 68°14' E 013°38'0 0.0
2017-Nov-09 13:30N 68°14' E 013°38'0 0.0
2017-Nov-09 13:00N 68°14' E 013°38'0 0.0
2017-Nov-09 12:29N 68°14' E 013°38'0 0.0
2017-Nov-09 12:00N 68°14' E 013°38'0 0.0
2017-Nov-09 11:30N 68°14' E 013°38'0 0.0
2017-Nov-09 11:00N 68°14' E 013°38'0 0.0
2017-Nov-09 10:30N 68°14' E 013°38'0 0.0
2017-Nov-09 09:59N 68°14' E 013°38'0 0.0
2017-Nov-09 09:30N 68°14' E 013°38'0 0.0
2017-Nov-09 09:00N 68°14' E 013°38'0 0.0
2017-Nov-09 08:30N 68°14' E 013°38'0 0.0
2017-Nov-09 08:00N 68°14' E 013°38'0 0.0
2017-Nov-09 07:30N 68°14' E 013°38'0 0.0
2017-Nov-09 07:00N 68°14' E 013°38'0 0.0
2017-Nov-09 06:30N 68°14' E 013°38'0 0.0
2017-Nov-09 06:00N 68°14' E 013°38'0 0.0
2017-Nov-09 05:30N 68°14' E 013°38'0 0.0
2017-Nov-09 05:00N 68°14' E 013°38'0 0.0
2017-Nov-09 04:30N 68°14' E 013°38'0 0.0
2017-Nov-09 03:59N 68°14' E 013°38'0 0.0
2017-Nov-09 03:30N 68°14' E 013°38'0 0.0
2017-Nov-09 03:00N 68°14' E 013°38'0 0.0
2017-Nov-09 02:30N 68°14' E 013°38'0 0.0
2017-Nov-09 01:59N 68°14' E 013°38'0 0.0
2017-Nov-09 01:30N 68°14' E 013°38'0 0.0
2017-Nov-09 00:59N 68°14' E 013°38'0 0.0
2017-Nov-09 00:30N 68°14' E 013°38'0 0.0
2017-Nov-09 00:00N 68°14' E 013°38'0 0.0
2017-Nov-08 23:30N 68°14' E 013°38'0 0.0
2017-Nov-08 23:00N 68°14' E 013°38'0 0.0
2017-Nov-08 22:30N 68°14' E 013°38'0 0.0
2017-Nov-08 21:59N 68°14' E 013°38'0 0.0
2017-Nov-08 21:30N 68°14' E 013°38'0 0.0
2017-Nov-08 21:00N 68°14' E 013°38'0 0.0
2017-Nov-08 20:30N 68°14' E 013°38'0 0.0
2017-Nov-08 20:00N 68°14' E 013°38'0 0.0
2017-Nov-08 19:30N 68°14' E 013°38'0 0.0
2017-Nov-08 19:00N 68°14' E 013°38'0 0.0
2017-Nov-08 18:30N 68°14' E 013°38'0 0.0
2017-Nov-08 18:00N 68°14' E 013°38'0 0.0
2017-Nov-08 17:30N 68°14' E 013°38'0 0.0
2017-Nov-08 17:00N 68°14' E 013°38'0 0.0
2017-Nov-08 16:30N 68°14' E 013°38'0 0.0
2017-Nov-08 16:00N 68°14' E 013°38'0 0.0
2017-Nov-08 15:30N 68°14' E 013°38'0 0.0
2017-Nov-08 15:00N 68°14' E 013°38'0 0.0
2017-Nov-08 14:30N 68°14' E 013°38'0 0.0
2017-Nov-08 13:48N 68°14' E 013°38'0 0.0
2017-Nov-08 13:30N 68°14' E 013°38'0 0.0
2017-Nov-08 12:36N 68°14' E 013°38'0 0.1
2017-Nov-08 12:29N 68°14' E 013°38'0 0.0
2017-Nov-08 11:49N 68°14' E 013°38'0 0.0
2017-Nov-08 09:04N 68°14' E 013°38'0 0.0
2017-Nov-08 09:00N 68°14' E 013°38'0 0.0
2017-Nov-08 08:30N 68°14' E 013°38'0 0.0
2017-Nov-08 08:00N 68°14' E 013°38'0 0.0
2017-Nov-08 07:30N 68°14' E 013°38'0 0.0
2017-Nov-08 06:59N 68°14' E 013°38'0 0.0
2017-Nov-08 06:30N 68°14' E 013°38'0 0.0
2017-Nov-08 06:00N 68°14' E 013°38'0 0.0
2017-Nov-08 05:30N 68°14' E 013°38'0 0.0
2017-Nov-08 05:00N 68°14' E 013°38'0 0.0
2017-Nov-08 04:30N 68°14' E 013°38'0 0.0
2017-Nov-08 04:00N 68°14' E 013°38'0 0.0
2017-Nov-08 03:29N 68°14' E 013°38'0 0.0
2017-Nov-08 03:00N 68°14' E 013°38'0 0.0
2017-Nov-08 02:30N 68°14' E 013°38'0 0.0
2017-Nov-08 02:00N 68°14' E 013°38'0 0.0
2017-Nov-08 01:30N 68°14' E 013°38'0 0.0
2017-Nov-08 01:00N 68°14' E 013°38'0 0.0
2017-Nov-08 00:30N 68°14' E 013°38'0 0.0
2017-Nov-08 00:00N 68°14' E 013°38'0 0.0
2017-Nov-07 22:40N 68°14' E 013°38'0 0.0
2017-Nov-07 22:30N 68°14' E 013°38'0 0.0
2017-Nov-07 22:00N 68°14' E 013°38'0 0.0
2017-Nov-07 21:30N 68°14' E 013°38'0 0.0
2017-Nov-07 21:00N 68°14' E 013°38'0 0.0
2017-Nov-07 20:30N 68°14' E 013°38'0 0.0
2017-Nov-07 20:00N 68°14' E 013°38'0 0.0
2017-Nov-07 19:30N 68°14' E 013°38'0 0.0
2017-Nov-07 19:00N 68°14' E 013°38'0 0.0
2017-Nov-07 18:30N 68°14' E 013°38'0 0.0
2017-Nov-07 18:00N 68°14' E 013°38'0 0.0
2017-Nov-07 17:30N 68°14' E 013°38'0 0.0
2017-Nov-07 17:00N 68°14' E 013°38'0 0.0
2017-Nov-07 16:30N 68°14' E 013°38'0 0.0
2017-Nov-07 16:00N 68°14' E 013°38'0 0.0
2017-Nov-07 15:30N 68°14' E 013°38'0 0.0
2017-Nov-07 14:59N 68°14' E 013°38'0 0.0
2017-Nov-07 14:30N 68°14' E 013°38'0 0.0
2017-Nov-07 14:00N 68°14' E 013°38'0 0.0
2017-Nov-07 13:30N 68°14' E 013°38'0 0.0
2017-Nov-07 13:00N 68°14' E 013°38'0 0.0
2017-Nov-07 12:30N 68°14' E 013°38'0 0.0
2017-Nov-07 12:00N 68°14' E 013°38'0 0.0
2017-Nov-07 11:30N 68°14' E 013°38'0 0.0
2017-Nov-07 11:00N 68°14' E 013°38'0 0.0
2017-Nov-07 10:30N 68°14' E 013°38'0 0.0
2017-Nov-07 10:00N 68°14' E 013°38'0 0.0
2017-Nov-07 09:30N 68°14' E 013°38'0 0.0
2017-Nov-07 09:00N 68°14' E 013°38'0 0.0
2017-Nov-07 08:30N 68°14' E 013°38'0 0.0
2017-Nov-07 08:00N 68°14' E 013°38'0 0.0
2017-Nov-07 07:30N 68°14' E 013°38'0 0.0
2017-Nov-07 07:00N 68°14' E 013°38'0 0.0
2017-Nov-07 06:30N 68°14' E 013°38'0 0.0
2017-Nov-07 06:00N 68°14' E 013°38'0 0.0
2017-Nov-07 05:30N 68°14' E 013°38'0 0.0
2017-Nov-07 05:00N 68°14' E 013°38'0 0.0
2017-Nov-07 04:30N 68°14' E 013°38'0 0.0
2017-Nov-07 04:00N 68°14' E 013°38'0 0.0
2017-Nov-07 03:30N 68°14' E 013°38'0 0.0
2017-Nov-07 03:00N 68°14' E 013°38'0 0.0
2017-Nov-07 02:30N 68°14' E 013°38'0 0.0
2017-Nov-07 02:00N 68°14' E 013°38'0 0.0
2017-Nov-07 01:30N 68°14' E 013°38'0 0.0
2017-Nov-07 01:00N 68°14' E 013°38'0 0.0
2017-Nov-07 00:30N 68°14' E 013°38'0 0.0
2017-Nov-07 00:00N 68°14' E 013°38'0 0.0
2017-Nov-06 23:30N 68°14' E 013°38'0 0.0
2017-Nov-06 23:00N 68°14' E 013°38'0 0.0
2017-Nov-06 22:30N 68°14' E 013°38'0 0.0
2017-Nov-06 22:00N 68°14' E 013°38'0 0.0
2017-Nov-06 21:30N 68°14' E 013°38'0 0.0
2017-Nov-06 21:00N 68°14' E 013°38'0 0.0
2017-Nov-06 20:30N 68°14' E 013°38'  
Track history (hours):
 
Tides and Currents Weather Stations Pressure Air Temp Water Temp Dewpoint Dewpoint Depression Visibility Wind Speed Wind Dir Waves Ship Positions

Ny-glimt

Last reported at 2017-Nov-16 09:06 UTC. Time now 2017-Dec-17 08:19 UTC.
Position N 70°04' E 021°11'.
Warning: this ship's position is 30 days out of date.

Length 13 m; draft 2 m.

Type: Fishing. MMSI: 257933500.

Date/timePositionNaut miles runAvg speedWind from/ knotsBaromVisibWave heightAir tempDewpointWater temp
2017-Nov-16 09:06N 70°04' E 021°11'0 1.9
2017-Nov-16 09:00N 70°04' E 021°10'0 0.5
2017-Nov-16 08:29N 70°03' E 021°11'1 1.8
2017-Nov-16 07:59N 70°02' E 021°11'0 0.1
2017-Nov-16 07:30N 70°02' E 021°11'2 3.4
2017-Nov-16 07:00N 70°02' E 021°07'0 0.2
2017-Nov-16 06:30N 70°02' E 021°07'0 0.2
2017-Nov-16 06:00N 70°02' E 021°07'1 1.2
2017-Nov-16 05:30N 70°01' E 021°05'0 0.6
2017-Nov-16 05:00N 70°02' E 021°05'2 3.7
2017-Nov-16 04:30N 70°02' E 020°60'0 0.9
2017-Nov-16 04:00N 70°02' E 020°59'0 0.0
2017-Nov-16 03:30N 70°02' E 020°59'0 0.0
2017-Nov-16 03:00N 70°02' E 020°59'0 0.0
2017-Nov-16 02:30N 70°02' E 020°59'0 0.0
2017-Nov-16 02:00N 70°02' E 020°59'0 0.0
2017-Nov-16 01:30N 70°02' E 020°59'0 0.0
2017-Nov-16 01:00N 70°02' E 020°59'0 0.0
2017-Nov-16 00:30N 70°02' E 020°59'0 0.0
2017-Nov-16 00:00N 70°02' E 020°59'0 0.0
2017-Nov-15 23:30N 70°02' E 020°59'0 0.0
2017-Nov-15 22:59N 70°02' E 020°59'0 0.0
2017-Nov-15 22:30N 70°02' E 020°59'0 0.0
2017-Nov-15 22:00N 70°02' E 020°59'0 0.0
2017-Nov-15 21:30N 70°02' E 020°59'0 0.0
2017-Nov-15 20:59N 70°02' E 020°59'0 0.0
2017-Nov-15 20:30N 70°02' E 020°59'0 0.0
2017-Nov-15 20:00N 70°02' E 020°59'0 0.0
2017-Nov-15 19:30N 70°02' E 020°59'0 0.0
2017-Nov-15 19:00N 70°02' E 020°59'1 2.3
2017-Nov-15 18:30N 70°02' E 021°02'3 6.9
2017-Nov-15 17:59N 70°04' E 021°11'3 6.8
2017-Nov-15 17:30N 70°07' E 021°12'0 1.0
2017-Nov-15 17:00N 70°07' E 021°11'3 5.3
2017-Nov-15 16:30N 70°05' E 021°07'4 7.1
2017-Nov-15 15:59N 70°02' E 020°60'0 0.9
2017-Nov-15 15:30N 70°02' E 020°59'0 0.0
2017-Nov-15 15:00N 70°02' E 020°59'0 0.0
2017-Nov-15 14:30N 70°02' E 020°59'0 0.0
2017-Nov-15 13:57N 70°02' E 020°59'0 0.4
2017-Nov-15 13:30N 70°02' E 020°59'2 3.5
2017-Nov-15 13:00N 70°02' E 021°04'2 4.7
2017-Nov-15 12:30N 70°03' E 021°10'1 2.1
2017-Nov-15 12:00N 70°04' E 021°12'2 3.3
2017-Nov-15 11:30N 70°03' E 021°11'0 0.7
2017-Nov-15 11:00N 70°02' E 021°11'1 2.9
2017-Nov-15 10:30N 70°02' E 021°07'0 0.4
2017-Nov-15 10:00N 70°02' E 021°06'1 1.4
2017-Nov-15 09:30N 70°01' E 021°05'2 3.0
2017-Nov-15 09:00N 70°01' E 021°00'1 1.8
2017-Nov-15 08:30N 70°02' E 020°59'0 0.1
2017-Nov-15 08:00N 70°02' E 020°59'0 0.0
2017-Nov-15 07:30N 70°02' E 020°59'0 0.0
2017-Nov-15 07:00N 70°02' E 020°59'0 0.0
2017-Nov-15 06:30N 70°02' E 020°59'0 0.0
2017-Nov-15 06:00N 70°02' E 020°59'0 0.0
2017-Nov-15 05:30N 70°02' E 020°59'0 0.0
2017-Nov-15 05:00N 70°02' E 020°59'0 0.0
2017-Nov-15 04:30N 70°02' E 020°59'0 0.0
2017-Nov-15 04:00N 70°02' E 020°59'0 0.5
2017-Nov-15 03:30N 70°02' E 020°59'2 4.0
2017-Nov-15 03:00N 70°04' E 020°57'4 7.8
2017-Nov-15 02:30N 70°02' E 020°46'4 7.2
2017-Nov-15 02:00N 70°01' E 020°37'3 6.8
2017-Nov-15 01:30N 70°00' E 020°27'3 6.9
2017-Nov-15 01:00N 69°59' E 020°18'4 7.0
2017-Nov-15 00:30N 69°57' E 020°09'4 6.9
2017-Nov-14 23:59N 69°55' E 020°01'3 6.9
2017-Nov-14 23:30N 69°53' E 019°54'3 6.9
2017-Nov-14 23:00N 69°51' E 019°46'4 8.0
2017-Nov-14 22:30N 69°49' E 019°35'4 8.2
2017-Nov-14 22:00N 69°48' E 019°24'4 8.2
2017-Nov-14 21:30N 69°46' E 019°13'4 8.0
2017-Nov-14 21:00N 69°44' E 019°05'4 8.0
2017-Nov-14 20:30N 69°40' E 019°00'4 8.0
2017-Nov-14 20:00N 69°37' E 018°54'4 8.1
2017-Nov-14 19:30N 69°34' E 018°46'5 9.4
2017-Nov-14 19:00N 69°32' E 018°34'4 8.3
2017-Nov-14 18:30N 69°31' E 018°22'4 8.0
2017-Nov-14 18:00N 69°29' E 018°12'4 7.1
2017-Nov-14 17:30N 69°26' E 018°08'4 7.6
2017-Nov-14 17:00N 69°22' E 018°06'4 7.4
2017-Nov-14 16:30N 69°19' E 017°60'4 7.5
2017-Nov-14 16:00N 69°15' E 017°59'4 7.1
2017-Nov-14 15:30N 69°12' E 018°01'3 6.9
2017-Nov-14 15:00N 69°10' E 017°54'4 7.8
2017-Nov-14 14:29N 69°08' E 017°43'4 7.7
2017-Nov-14 13:59N 69°07' E 017°34'4 7.7
2017-Nov-14 13:30N 69°05' E 017°24'4 7.9
2017-Nov-14 12:59N 69°01' E 017°18'4 7.8
2017-Nov-14 12:30N 68°58' E 017°12'4 8.0
2017-Nov-14 12:00N 68°55' E 017°05'4 7.9
2017-Nov-14 11:30N 68°52' E 016°58'4 7.8
2017-Nov-14 11:00N 68°49' E 016°53'4 8.0
2017-Nov-14 10:30N 68°45' E 016°47'4 8.2
2017-Nov-14 10:00N 68°42' E 016°42'4 8.6
2017-Nov-14 09:29N 68°38' E 016°35'4 8.8
2017-Nov-14 09:00N 68°34' E 016°31'4 8.3
2017-Nov-14 08:30N 68°34' E 016°20'4 8.3
2017-Nov-14 08:00N 68°31' E 016°11'4 8.1
2017-Nov-14 07:30N 68°28' E 016°06'4 7.9
2017-Nov-14 07:00N 68°24' E 016°01'4 7.4
2017-Nov-14 06:30N 68°21' E 015°55'4 7.2
2017-Nov-14 06:00N 68°19' E 015°47'4 7.6
2017-Nov-14 05:30N 68°17' E 015°38'4 7.5
2017-Nov-14 05:00N 68°16' E 015°29'4 7.7
2017-Nov-14 04:30N 68°14' E 015°19'4 7.6
2017-Nov-14 04:00N 68°13' E 015°10'4 7.8
2017-Nov-14 03:30N 68°11' E 015°01'4 7.8
2017-Nov-14 03:00N 68°09' E 014°51'4 7.6
2017-Nov-14 02:29N 68°08' E 014°42'4 7.3
2017-Nov-14 01:59N 68°07' E 014°32'4 7.3
2017-Nov-14 01:30N 68°06' E 014°22'4 7.6
2017-Nov-14 01:00N 68°06' E 014°13'4 7.7
2017-Nov-14 00:29N 68°05' E 014°02'4 7.4
2017-Nov-14 00:00N 68°05' E 013°52'4 7.3
2017-Nov-13 23:29N 68°04' E 013°43'4 7.4
2017-Nov-13 23:00N 68°04' E 013°33'3 5.8
2017-Nov-13 22:30N 68°05' E 013°27'3 6.7
2017-Nov-13 22:00N 68°09' E 013°28'7 0.3
2017-Nov-13 02:00N 68°14' E 013°38'0 0.0
2017-Nov-13 01:30N 68°14' E 013°38'0 0.0
2017-Nov-13 01:00N 68°14' E 013°38'0 0.0
2017-Nov-13 00:29N 68°14' E 013°38'0 0.0
2017-Nov-13 00:00N 68°14' E 013°38'0 0.0
2017-Nov-12 23:30N 68°14' E 013°38'0 0.0
2017-Nov-12 23:00N 68°14' E 013°38'0 0.0
2017-Nov-12 22:30N 68°14' E 013°38'0 0.0
2017-Nov-12 22:00N 68°14' E 013°38'0 0.0
2017-Nov-12 21:30N 68°14' E 013°38'0 0.0
2017-Nov-12 20:59N 68°14' E 013°38'0 0.0
2017-Nov-12 20:30N 68°14' E 013°38'0 0.0
2017-Nov-12 20:00N 68°14' E 013°38'0 0.0
2017-Nov-12 19:30N 68°14' E 013°38'0 0.0
2017-Nov-12 19:00N 68°14' E 013°38'0 0.0
2017-Nov-12 18:30N 68°14' E 013°38'0 0.0
2017-Nov-12 18:00N 68°14' E 013°38'0 0.0
2017-Nov-12 17:30N 68°14' E 013°38'0 0.0
2017-Nov-12 17:00N 68°14' E 013°38'0 0.0
2017-Nov-12 16:30N 68°14' E 013°38'0 0.0
2017-Nov-12 16:00N 68°14' E 013°38'0 0.0
2017-Nov-12 15:30N 68°14' E 013°38'0 0.0
2017-Nov-12 15:00N 68°14' E 013°38'0 0.0
2017-Nov-12 14:30N 68°14' E 013°38'0 0.0
2017-Nov-12 14:00N 68°14' E 013°38'0 0.0
2017-Nov-12 13:30N 68°14' E 013°38'0 0.0
2017-Nov-12 13:00N 68°14' E 013°38'0 0.0
2017-Nov-12 12:30N 68°14' E 013°38'0 0.0
2017-Nov-12 12:00N 68°14' E 013°38'0 0.0
2017-Nov-12 11:30N 68°14' E 013°38'0 0.0
2017-Nov-12 10:59N 68°14' E 013°38'0 0.0
2017-Nov-12 10:30N 68°14' E 013°38'0 0.0
2017-Nov-12 09:59N 68°14' E 013°38'0 0.0
2017-Nov-12 09:30N 68°14' E 013°38'0 0.0
2017-Nov-12 09:00N 68°14' E 013°38'0 0.0
2017-Nov-12 08:29N 68°14' E 013°38'0 0.0
2017-Nov-12 07:59N 68°14' E 013°38'0 0.0
2017-Nov-12 07:30N 68°14' E 013°38'0 0.0
2017-Nov-12 07:00N 68°14' E 013°38'0 0.0
2017-Nov-12 06:30N 68°14' E 013°38'0 0.0
2017-Nov-12 06:00N 68°14' E 013°38'0 0.0
2017-Nov-12 05:30N 68°14' E 013°38'0 0.0
2017-Nov-12 05:00N 68°14' E 013°38'0 0.0
2017-Nov-12 04:30N 68°14' E 013°38'0 0.0
2017-Nov-12 04:00N 68°14' E 013°38'0 0.0
2017-Nov-12 03:30N 68°14' E 013°38'0 0.0
2017-Nov-12 03:00N 68°14' E 013°38'0 0.0
2017-Nov-12 02:29N 68°14' E 013°38'0 0.0
2017-Nov-12 02:00N 68°14' E 013°38'0 0.0
2017-Nov-12 01:30N 68°14' E 013°38'0 0.0
2017-Nov-12 01:00N 68°14' E 013°38'0 0.0
2017-Nov-12 00:30N 68°14' E 013°38'0 0.0
2017-Nov-12 00:00N 68°14' E 013°38'0 0.0
2017-Nov-11 23:30N 68°14' E 013°38'0 0.0
2017-Nov-11 22:59N 68°14' E 013°38'0 0.0
2017-Nov-11 22:30N 68°14' E 013°38'0 0.0
2017-Nov-11 22:00N 68°14' E 013°38'0 0.0
2017-Nov-11 21:30N 68°14' E 013°38'0 0.0
2017-Nov-11 21:00N 68°14' E 013°38'0 0.0
2017-Nov-11 20:30N 68°14' E 013°38'0 0.0
2017-Nov-11 20:00N 68°14' E 013°38'0 0.0
2017-Nov-11 19:30N 68°14' E 013°38'0 0.0
2017-Nov-11 19:00N 68°14' E 013°38'0 0.0
2017-Nov-11 18:30N 68°14' E 013°38'0 0.0
2017-Nov-11 18:00N 68°14' E 013°38'0 0.0
2017-Nov-11 17:29N 68°14' E 013°38'0 0.0
2017-Nov-11 16:59N 68°14' E 013°38'0 0.0
2017-Nov-11 16:30N 68°14' E 013°38'0 0.0
2017-Nov-11 16:00N 68°14' E 013°38'0 0.0
2017-Nov-11 15:30N 68°14' E 013°38'0 0.0
2017-Nov-11 15:00N 68°14' E 013°38'0 0.0
2017-Nov-11 14:30N 68°14' E 013°38'0 0.0
2017-Nov-11 14:00N 68°14' E 013°38'0 0.0
2017-Nov-11 13:30N 68°14' E 013°38'0 0.0
2017-Nov-11 13:00N 68°14' E 013°38'0 0.0
2017-Nov-11 12:30N 68°14' E 013°38'0 0.0
2017-Nov-11 12:00N 68°14' E 013°38'0 0.0
2017-Nov-11 11:30N 68°14' E 013°38'0 0.0
2017-Nov-11 11:00N 68°14' E 013°38'0 0.0
2017-Nov-11 10:30N 68°14' E 013°38'0 0.0
2017-Nov-11 09:59N 68°14' E 013°38'0 0.0
2017-Nov-11 09:30N 68°14' E 013°38'0 0.0
2017-Nov-11 09:00N 68°14' E 013°38'0 0.0
2017-Nov-11 08:30N 68°14' E 013°38'0 0.0
2017-Nov-11 08:00N 68°14' E 013°38'0 0.0
2017-Nov-11 07:30N 68°14' E 013°38'0 0.0
2017-Nov-11 07:00N 68°14' E 013°38'0 0.0
2017-Nov-11 06:30N 68°14' E 013°38'0 0.0
2017-Nov-11 06:00N 68°14' E 013°38'0 0.0
2017-Nov-11 05:30N 68°14' E 013°38'0 0.0
2017-Nov-11 05:00N 68°14' E 013°38'0 0.0
2017-Nov-11 04:30N 68°14' E 013°38'0 0.0
2017-Nov-11 04:00N 68°14' E 013°38'0 0.0
2017-Nov-11 03:30N 68°14' E 013°38'0 0.0
2017-Nov-11 03:00N 68°14' E 013°38'0 0.0
2017-Nov-11 02:30N 68°14' E 013°38'0 0.0
2017-Nov-11 02:00N 68°14' E 013°38'0 0.0
2017-Nov-11 01:30N 68°14' E 013°38'0 0.0
2017-Nov-11 01:00N 68°14' E 013°38'0 0.0
2017-Nov-11 00:30N 68°14' E 013°38'0 0.0
2017-Nov-11 00:00N 68°14' E 013°38'0 0.0
2017-Nov-10 23:30N 68°14' E 013°38'0 0.0
2017-Nov-10 23:00N 68°14' E 013°38'0 0.0
2017-Nov-10 22:30N 68°14' E 013°38'0 0.0
2017-Nov-10 22:00N 68°14' E 013°38'0 0.0
2017-Nov-10 21:30N 68°14' E 013°38'0 0.0
2017-Nov-10 21:00N 68°14' E 013°38'0 0.0
2017-Nov-10 20:30N 68°14' E 013°38'0 0.0
2017-Nov-10 20:00N 68°14' E 013°38'0 0.0
2017-Nov-10 19:30N 68°14' E 013°38'0 0.0
2017-Nov-10 19:00N 68°14' E 013°38'0 0.0
2017-Nov-10 18:30N 68°14' E 013°38'0 0.0
2017-Nov-10 18:00N 68°14' E 013°38'0 0.0
2017-Nov-10 17:29N 68°14' E 013°38'0 0.0
2017-Nov-10 17:00N 68°14' E 013°38'0 0.0
2017-Nov-10 16:30N 68°14' E 013°38'0 0.0
2017-Nov-10 16:00N 68°14' E 013°38'0 0.0
2017-Nov-10 15:30N 68°14' E 013°38'0 0.0
2017-Nov-10 15:00N 68°14' E 013°38'0 0.0
2017-Nov-10 14:30N 68°14' E 013°38'0 0.0
2017-Nov-10 14:00N 68°14' E 013°38'0 0.0
2017-Nov-10 13:30N 68°14' E 013°38'0 0.0
2017-Nov-10 12:59N 68°14' E 013°38'0 0.0
2017-Nov-10 12:30N 68°14' E 013°38'0 0.0
2017-Nov-10 12:00N 68°14' E 013°38'0 0.0
2017-Nov-10 11:30N 68°14' E 013°38'0 0.0
2017-Nov-10 11:00N 68°14' E 013°38'0 0.0
2017-Nov-10 10:30N 68°14' E 013°38'0 0.0
2017-Nov-10 10:00N 68°14' E 013°38'0 0.0
2017-Nov-10 09:29N 68°14' E 013°38'0 0.0
2017-Nov-10 09:00N 68°14' E 013°38'0 0.0
2017-Nov-10 08:30N 68°14' E 013°38'0 0.1
2017-Nov-10 08:00N 68°14' E 013°38'0 0.0
2017-Nov-10 07:30N 68°14' E 013°38'0 0.0
2017-Nov-10 07:00N 68°14' E 013°38'0 0.0
2017-Nov-10 06:30N 68°14' E 013°38'0 0.0
2017-Nov-10 06:00N 68°14' E 013°38'0 0.0
2017-Nov-10 05:30N 68°14' E 013°38'0 0.0
2017-Nov-10 05:00N 68°14' E 013°38'0 0.0
2017-Nov-10 04:30N 68°14' E 013°38'0 0.0
2017-Nov-10 04:00N 68°14' E 013°38'0 0.0
2017-Nov-10 03:30N 68°14' E 013°38'0 0.0
2017-Nov-10 03:00N 68°14' E 013°38'0 0.0
2017-Nov-10 02:30N 68°14' E 013°38'0 0.0
2017-Nov-10 02:00N 68°14' E 013°38'0 0.0
2017-Nov-10 01:30N 68°14' E 013°38'0 0.0
2017-Nov-10 01:00N 68°14' E 013°38'0 0.0
2017-Nov-10 00:30N 68°14' E 013°38'0 0.0
2017-Nov-10 00:00N 68°14' E 013°38'0 0.0
2017-Nov-09 23:30N 68°14' E 013°38'0 0.0
2017-Nov-09 23:00N 68°14' E 013°38'0 0.0
2017-Nov-09 22:30N 68°14' E 013°38'0 0.0
2017-Nov-09 22:00N 68°14' E 013°38'0 0.0
2017-Nov-09 21:29N 68°14' E 013°38'0 0.0
2017-Nov-09 21:00N 68°14' E 013°38'0 0.0
2017-Nov-09 20:30N 68°14' E 013°38'0 0.0
2017-Nov-09 20:00N 68°14' E 013°38'0 0.0
2017-Nov-09 19:30N 68°14' E 013°38'0 0.0
2017-Nov-09 19:00N 68°14' E 013°38'0 0.0
2017-Nov-09 18:30N 68°14' E 013°38'0 0.0
2017-Nov-09 18:00N 68°14' E 013°38'0 0.0
2017-Nov-09 17:29N 68°14' E 013°38'0 0.0
2017-Nov-09 17:00N 68°14' E 013°38'0 0.0
2017-Nov-09 16:30N 68°14' E 013°38'0 0.0
2017-Nov-09 16:00N 68°14' E 013°38'0 0.0
2017-Nov-09 15:30N 68°14' E 013°38'0 0.0
2017-Nov-09 15:00N 68°14' E 013°38'0 0.0
2017-Nov-09 14:30N 68°14' E 013°38'0 0.0
2017-Nov-09 14:00N 68°14' E 013°38'0 0.0
2017-Nov-09 13:30N 68°14' E 013°38'0 0.0
2017-Nov-09 13:00N 68°14' E 013°38'0 0.0
2017-Nov-09 12:29N 68°14' E 013°38'0 0.0
2017-Nov-09 12:00N 68°14' E 013°38'0 0.0
2017-Nov-09 11:30N 68°14' E 013°38'0 0.0
2017-Nov-09 11:00N 68°14' E 013°38'0 0.0
2017-Nov-09 10:30N 68°14' E 013°38'0 0.0
2017-Nov-09 09:59N 68°14' E 013°38'0 0.0
2017-Nov-09 09:30N 68°14' E 013°38'0 0.0
2017-Nov-09 09:00N 68°14' E 013°38'0 0.0
2017-Nov-09 08:30N 68°14' E 013°38'0 0.0
2017-Nov-09 08:00N 68°14' E 013°38'0 0.0
2017-Nov-09 07:30N 68°14' E 013°38'0 0.0
2017-Nov-09 07:00N 68°14' E 013°38'0 0.0
2017-Nov-09 06:30N 68°14' E 013°38'0 0.0
2017-Nov-09 06:00N 68°14' E 013°38'0 0.0
2017-Nov-09 05:30N 68°14' E 013°38'0 0.0
2017-Nov-09 05:00N 68°14' E 013°38'0 0.0
2017-Nov-09 04:30N 68°14' E 013°38'0 0.0
2017-Nov-09 03:59N 68°14' E 013°38'0 0.0
2017-Nov-09 03:30N 68°14' E 013°38'0 0.0
2017-Nov-09 03:00N 68°14' E 013°38'0 0.0
2017-Nov-09 02:30N 68°14' E 013°38'0 0.0
2017-Nov-09 01:59N 68°14' E 013°38'0 0.0
2017-Nov-09 01:30N 68°14' E 013°38'0 0.0
2017-Nov-09 00:59N 68°14' E 013°38'0 0.0
2017-Nov-09 00:30N 68°14' E 013°38'0 0.0
2017-Nov-09 00:00N 68°14' E 013°38'0 0.0
2017-Nov-08 23:30N 68°14' E 013°38'0 0.0
2017-Nov-08 23:00N 68°14' E 013°38'0 0.0
2017-Nov-08 22:30N 68°14' E 013°38'0 0.0
2017-Nov-08 21:59N 68°14' E 013°38'0 0.0
2017-Nov-08 21:30N 68°14' E 013°38'0 0.0
2017-Nov-08 21:00N 68°14' E 013°38'0 0.0
2017-Nov-08 20:30N 68°14' E 013°38'0 0.0
2017-Nov-08 20:00N 68°14' E 013°38'0 0.0
2017-Nov-08 19:30N 68°14' E 013°38'0 0.0
2017-Nov-08 19:00N 68°14' E 013°38'0 0.0
2017-Nov-08 18:30N 68°14' E 013°38'0 0.0
2017-Nov-08 18:00N 68°14' E 013°38'0 0.0
2017-Nov-08 17:30N 68°14' E 013°38'0 0.0
2017-Nov-08 17:00N 68°14' E 013°38'0 0.0
2017-Nov-08 16:30N 68°14' E 013°38'0 0.0
2017-Nov-08 16:00N 68°14' E 013°38'0 0.0
2017-Nov-08 15:30N 68°14' E 013°38'0 0.0
2017-Nov-08 15:00N 68°14' E 013°38'0 0.0
2017-Nov-08 14:30N 68°14' E 013°38'0 0.0
2017-Nov-08 13:48N 68°14' E 013°38'0 0.0
2017-Nov-08 13:30N 68°14' E 013°38'0 0.0
2017-Nov-08 12:36N 68°14' E 013°38'0 0.1
2017-Nov-08 12:29N 68°14' E 013°38'0 0.0
2017-Nov-08 11:49N 68°14' E 013°38'0 0.0
2017-Nov-08 09:04N 68°14' E 013°38'0 0.0
2017-Nov-08 09:00N 68°14' E 013°38'0 0.0
2017-Nov-08 08:30N 68°14' E 013°38'0 0.0
2017-Nov-08 08:00N 68°14' E 013°38'0 0.0
2017-Nov-08 07:30N 68°14' E 013°38'0 0.0
2017-Nov-08 06:59N 68°14' E 013°38'0 0.0
2017-Nov-08 06:30N 68°14' E 013°38'0 0.0
2017-Nov-08 06:00N 68°14' E 013°38'0 0.0
2017-Nov-08 05:30N 68°14' E 013°38'0 0.0
2017-Nov-08 05:00N 68°14' E 013°38'0 0.0
2017-Nov-08 04:30N 68°14' E 013°38'0 0.0
2017-Nov-08 04:00N 68°14' E 013°38'0 0.0
2017-Nov-08 03:29N 68°14' E 013°38'0 0.0
2017-Nov-08 03:00N 68°14' E 013°38'0 0.0
2017-Nov-08 02:30N 68°14' E 013°38'0 0.0
2017-Nov-08 02:00N 68°14' E 013°38'0 0.0
2017-Nov-08 01:30N 68°14' E 013°38'0 0.0
2017-Nov-08 01:00N 68°14' E 013°38'0 0.0
2017-Nov-08 00:30N 68°14' E 013°38'0 0.0
2017-Nov-08 00:00N 68°14' E 013°38'0 0.0
2017-Nov-07 22:40N 68°14' E 013°38'0 0.0
2017-Nov-07 22:30N 68°14' E 013°38'0 0.0
2017-Nov-07 22:00N 68°14' E 013°38'0 0.0
2017-Nov-07 21:30N 68°14' E 013°38'0 0.0
2017-Nov-07 21:00N 68°14' E 013°38'0 0.0
2017-Nov-07 20:30N 68°14' E 013°38'0 0.0
2017-Nov-07 20:00N 68°14' E 013°38'0 0.0
2017-Nov-07 19:30N 68°14' E 013°38'0 0.0
2017-Nov-07 19:00N 68°14' E 013°38'0 0.0
2017-Nov-07 18:30N 68°14' E 013°38'0 0.0
2017-Nov-07 18:00N 68°14' E 013°38'0 0.0
2017-Nov-07 17:30N 68°14' E 013°38'0 0.0
2017-Nov-07 17:00N 68°14' E 013°38'0 0.0
2017-Nov-07 16:30N 68°14' E 013°38'0 0.0
2017-Nov-07 16:00N 68°14' E 013°38'0 0.0
2017-Nov-07 15:30N 68°14' E 013°38'0 0.0
2017-Nov-07 14:59N 68°14' E 013°38'0 0.0
2017-Nov-07 14:30N 68°14' E 013°38'0 0.0
2017-Nov-07 14:00N 68°14' E 013°38'0 0.0
2017-Nov-07 13:30N 68°14' E 013°38'0 0.0
2017-Nov-07 13:00N 68°14' E 013°38'0 0.0
2017-Nov-07 12:30N 68°14' E 013°38'0 0.0
2017-Nov-07 12:00N 68°14' E 013°38'0 0.0
2017-Nov-07 11:30N 68°14' E 013°38'0 0.0
2017-Nov-07 11:00N 68°14' E 013°38'0 0.0
2017-Nov-07 10:30N 68°14' E 013°38'0 0.0
2017-Nov-07 10:00N 68°14' E 013°38'0 0.0
2017-Nov-07 09:30N 68°14' E 013°38'0 0.0
2017-Nov-07 09:00N 68°14' E 013°38'0 0.0
2017-Nov-07 08:30N 68°14' E 013°38'0 0.0
2017-Nov-07 08:00N 68°14' E 013°38'0 0.0
2017-Nov-07 07:30N 68°14' E 013°38'0 0.0
2017-Nov-07 07:00N 68°14' E 013°38'0 0.0
2017-Nov-07 06:30N 68°14' E 013°38'0 0.0
2017-Nov-07 06:00N 68°14' E 013°38'0 0.0
2017-Nov-07 05:30N 68°14' E 013°38'0 0.0
2017-Nov-07 05:00N 68°14' E 013°38'0 0.0
2017-Nov-07 04:30N 68°14' E 013°38'0 0.0
2017-Nov-07 04:00N 68°14' E 013°38'0 0.0
2017-Nov-07 03:30N 68°14' E 013°38'0 0.0
2017-Nov-07 03:00N 68°14' E 013°38'0 0.0
2017-Nov-07 02:30N 68°14' E 013°38'0 0.0
2017-Nov-07 02:00N 68°14' E 013°38'0 0.0
2017-Nov-07 01:30N 68°14' E 013°38'0 0.0
2017-Nov-07 01:00N 68°14' E 013°38'0 0.0
2017-Nov-07 00:30N 68°14' E 013°38'0 0.0
2017-Nov-07 00:00N 68°14' E 013°38'0 0.0
2017-Nov-06 23:30N 68°14' E 013°38'0 0.0
2017-Nov-06 23:00N 68°14' E 013°38'0 0.0
2017-Nov-06 22:30N 68°14' E 013°38'0 0.0
2017-Nov-06 22:00N 68°14' E 013°38'0 0.0
2017-Nov-06 21:30N 68°14' E 013°38'0 0.0
2017-Nov-06 21:00N 68°14' E 013°38'0 0.0
2017-Nov-06 20:30N 68°14' E 013°38'  

Dump ship's entire track history